Private Wetterstation Sandau
Wetterdaten: Woche 04.06.12 - 10.06.12 (KW23)
Datum Zeit Temp. A. Feuchte A. Luftdruck Regen Wind Richtung Taupunkt Windchill
04.06.2012 00:00 9,6 C 82 % 1009,6 hPa 0,0 l/m 4,5 km/h (1 Bft) W 6,7 C 9,4 C
04.06.2012 01:00 9,6 C 83 % 1009,9 hPa 0,0 l/m 3,1 km/h (1 Bft) W 6,9 C 9,5 C
04.06.2012 02:00 9,5 C 84 % 1009,7 hPa 0,0 l/m 4,4 km/h (1 Bft) W 7,0 C 9,2 C
04.06.2012 03:00 9,4 C 85 % 1009,6 hPa 0,0 l/m 4,2 km/h (1 Bft) W-NW 7,0 C 9,1 C
04.06.2012 04:00 9,4 C 85 % 1009,8 hPa 0,0 l/m 4,8 km/h (1 Bft) W 7,0 C 9,1 C
04.06.2012 05:00 9,4 C 84 % 1010,3 hPa 0,0 l/m 3,8 km/h (1 Bft) W 6,9 C 9,2 C
04.06.2012 06:00 9,5 C 84 % 1010,7 hPa 0,0 l/m 2,5 km/h (1 Bft) W 7,0 C 9,5 C
04.06.2012 07:00 10,1 C 83 % 1010,9 hPa 0,0 l/m 5,9 km/h (2 Bft) W 7,3 C 10,0 C
04.06.2012 08:00 11,5 C 78 % 1011,2 hPa 0,0 l/m 7,2 km/h (2 Bft) W-SW 7,7 C 11,5 C
04.06.2012 09:00 12,7 C 69 % 1011,3 hPa 0,0 l/m 6,6 km/h (2 Bft) W-SW 7,3 C 12,7 C
04.06.2012 10:00 13,8 C 63 % 1011,2 hPa 0,0 l/m 7,1 km/h (2 Bft) W-NW 6,8 C 13,8 C
04.06.2012 11:00 14,8 C 56 % 1011,2 hPa 0,0 l/m 7,6 km/h (2 Bft) W-NW 6,0 C 14,8 C
04.06.2012 12:00 15,9 C 52 % 1011,1 hPa 0,0 l/m 10,1 km/h (2 Bft) W 6,1 C 15,9 C
04.06.2012 13:00 16,6 C 48 % 1010,9 hPa 0,0 l/m 6,9 km/h (2 Bft) W-NW 5,7 C 16,6 C
04.06.2012 14:00 17,5 C 46 % 1010,5 hPa 0,0 l/m 7,6 km/h (2 Bft) W 5,6 C 17,5 C
04.06.2012 15:00 17,6 C 45 % 1010,2 hPa 0,0 l/m 6,1 km/h (2 Bft) S 5,6 C 17,6 C
04.06.2012 16:00 16,5 C 49 % 1010,3 hPa 0,0 l/m 6,6 km/h (2 Bft) S-SW 5,7 C 16,5 C
04.06.2012 17:00 16,0 C 53 % 1010,2 hPa 0,0 l/m 5,3 km/h (1 Bft) S-SW 6,4 C 16,0 C
04.06.2012 18:00 15,7 C 56 % 1009,9 hPa 0,0 l/m 5,0 km/h (1 Bft) S-SW 6,9 C 15,7 C
04.06.2012 19:00 15,7 C 57 % 1009,6 hPa 0,0 l/m 2,6 km/h (1 Bft) S 7,2 C 15,7 C
04.06.2012 20:00 15,0 C 62 % 1010,1 hPa 0,5 l/m 1,5 km/h (1 Bft) S 7,8 C 15,0 C
04.06.2012 21:00 12,5 C 70 % 1010,3 hPa 0,0 l/m 4,3 km/h (1 Bft) N-NO 7,3 C 12,5 C
04.06.2012 22:00 10,6 C 80 % 1010,2 hPa 0,0 l/m 6,8 km/h (2 Bft) NO 7,4 C 10,6 C
04.06.2012 23:00 9,9 C 84 % 1010,2 hPa 1,6 l/m 8,2 km/h (2 Bft) N-NO 7,3 C 9,1 C
05.06.2012 00:00 9,7 C 87 % 1010,5 hPa 1,0 l/m 7,0 km/h (2 Bft) N-NO 7,6 C 8,9 C
05.06.2012 01:00 9,2 C 87 % 1010,8 hPa 1,0 l/m 5,7 km/h (1 Bft) O-NO 7,1 C 8,7 C
05.06.2012 02:00 9,2 C 87 % 1011,2 hPa 1,0 l/m 4,9 km/h (1 Bft) NO 7,1 C 8,9 C
05.06.2012 03:00 9,0 C 87 % 1011,6 hPa 0,5 l/m 3,9 km/h (1 Bft) N-NO 7,0 C 8,9 C
05.06.2012 04:00 8,9 C 87 % 1012,0 hPa 0,0 l/m 3,3 km/h (1 Bft) N-NO 6,8 C 8,8 C
05.06.2012 05:00 8,5 C 86 % 1012,8 hPa 0,0 l/m 4,4 km/h (1 Bft) NW 6,3 C 8,1 C
05.06.2012 06:00 9,0 C 85 % 1013,7 hPa 0,0 l/m 3,4 km/h (1 Bft) W-NW 6,7 C 8,9 C
05.06.2012 07:00 10,3 C 81 % 1014,4 hPa 0,0 l/m 6,9 km/h (2 Bft) N-NW 7,3 C 10,2 C
05.06.2012 08:00 12,0 C 74 % 1015,1 hPa 0,0 l/m 8,1 km/h (2 Bft) N-NW 7,5 C 12,0 C
05.06.2012 09:00 12,8 C 67 % 1015,7 hPa 0,0 l/m 10,0 km/h (2 Bft) W-NW 6,8 C 12,8 C
05.06.2012 10:00 12,8 C 64 % 1016,3 hPa 0,0 l/m 10,9 km/h (2 Bft) W-NW 6,1 C 12,8 C
05.06.2012 11:00 13,1 C 61 % 1016,9 hPa 0,0 l/m 6,5 km/h (2 Bft) NW 5,9 C 13,1 C
05.06.2012 12:00 14,0 C 58 % 1017,2 hPa 0,0 l/m 8,9 km/h (2 Bft) W-NW 5,8 C 14,0 C
05.06.2012 13:00 14,2 C 58 % 1017,6 hPa 0,0 l/m 9,5 km/h (2 Bft) W 5,9 C 14,2 C
05.06.2012 14:00 15,4 C 55 % 1017,5 hPa 0,0 l/m 10,6 km/h (2 Bft) W 6,3 C 15,4 C
05.06.2012 15:00 14,7 C 55 % 1017,9 hPa 0,0 l/m 12,0 km/h (2 Bft) W-NW 5,8 C 14,7 C
05.06.2012 16:00 15,1 C 55 % 1017,8 hPa 0,0 l/m 7,0 km/h (2 Bft) W 6,2 C 15,1 C
05.06.2012 17:00 15,2 C 54 % 1017,8 hPa 0,0 l/m 9,4 km/h (2 Bft) W 6,0 C 15,2 C
05.06.2012 18:00 15,5 C 54 % 1017,5 hPa 0,0 l/m 8,7 km/h (2 Bft) W 6,2 C 15,5 C
05.06.2012 19:00 15,3 C 56 % 1017,5 hPa 0,0 l/m 6,7 km/h (2 Bft) W-SW 6,6 C 15,3 C
05.06.2012 20:00 15,1 C 55 % 1017,6 hPa 0,0 l/m 4,0 km/h (1 Bft) W-SW 6,1 C 15,1 C
05.06.2012 21:00 13,7 C 61 % 1017,6 hPa 0,0 l/m 2,1 km/h (1 Bft) SW 6,2 C 13,7 C
05.06.2012 22:00 12,9 C 64 % 1017,7 hPa 0,0 l/m 0,8 km/h (0 Bft) W-SW 6,3 C 12,9 C
05.06.2012 23:00 11,8 C 69 % 1017,2 hPa 0,0 l/m 0,2 km/h (0 Bft) S-SO 6,3 C 11,8 C
06.06.2012 00:00 10,7 C 73 % 1017,0 hPa 0,0 l/m 0,2 km/h (0 Bft) S-SO 6,0 C 10,7 C
06.06.2012 01:00 9,9 C 75 % 1016,7 hPa 0,0 l/m 0,6 km/h (0 Bft) SO 5,7 C 9,9 C
06.06.2012 02:00 9,0 C 77 % 1016,0 hPa 0,0 l/m 0,5 km/h (0 Bft) O 5,2 C 9,0 C
06.06.2012 03:00 8,4 C 79 % 1015,5 hPa 0,0 l/m 0,5 km/h (0 Bft) O-SO 5,0 C 8,4 C
06.06.2012 04:00 7,7 C 80 % 1015,1 hPa 0,0 l/m 1,0 km/h (0 Bft) O-SO 4,5 C 7,7 C
06.06.2012 05:00 7,1 C 82 % 1014,8 hPa 0,0 l/m 2,1 km/h (1 Bft) O-SO 4,2 C 7,1 C
06.06.2012 06:00 8,5 C 79 % 1014,5 hPa 0,0 l/m 3,2 km/h (1 Bft) O 5,2 C 8,5 C
06.06.2012 07:00 10,5 C 77 % 1014,0 hPa 0,0 l/m 3,6 km/h (1 Bft) O-SO 6,6 C 10,5 C
06.06.2012 08:00 12,2 C 73 % 1013,8 hPa 0,0 l/m 3,1 km/h (1 Bft) S-SO 7,4 C 12,2 C
06.06.2012 09:00 13,9 C 62 % 1013,2 hPa 0,0 l/m 8,5 km/h (2 Bft) S-SO 6,7 C 13,9 C
06.06.2012 10:00 14,0 C 56 % 1012,6 hPa 0,0 l/m 7,4 km/h (2 Bft) SO 5,5 C 14,0 C
06.06.2012 11:00 14,5 C 55 % 1012,0 hPa 0,0 l/m 8,5 km/h (2 Bft) O-SO 5,5 C 14,5 C
06.06.2012 12:00 15,7 C 51 % 1011,3 hPa 0,0 l/m 11,2 km/h (2 Bft) S-SO 5,7 C 15,7 C
06.06.2012 13:00 16,4 C 50 % 1010,5 hPa 0,0 l/m 11,8 km/h (2 Bft) SO 5,9 C 16,4 C
06.06.2012 14:00 16,5 C 51 % 1009,9 hPa 0,0 l/m 9,3 km/h (2 Bft) SO 6,4 C 16,5 C
06.06.2012 15:00 15,3 C 61 % 1009,6 hPa 0,5 l/m 6,7 km/h (2 Bft) SO 7,9 C 15,3 C
06.06.2012 16:00 14,5 C 71 % 1009,4 hPa 0,0 l/m 6,8 km/h (2 Bft) S-SO 9,3 C 14,5 C
06.06.2012 17:00 13,7 C 74 % 1009,3 hPa 0,0 l/m 5,5 km/h (1 Bft) SO 9,2 C 13,7 C
06.06.2012 18:00 13,2 C 77 % 1008,7 hPa 0,0 l/m 5,5 km/h (1 Bft) SO 9,3 C 13,2 C
06.06.2012 19:00 12,9 C 76 % 1008,5 hPa 0,0 l/m 7,9 km/h (2 Bft) O-SO 8,7 C 12,9 C
06.06.2012 20:00 12,5 C 77 % 1008,3 hPa 0,0 l/m 6,8 km/h (2 Bft) O 8,6 C 12,5 C
06.06.2012 21:00 12,2 C 79 % 1008,2 hPa 0,0 l/m 4,9 km/h (1 Bft) O-SO 8,7 C 12,2 C
06.06.2012 22:00 12,1 C 80 % 1008,4 hPa 0,0 l/m 4,0 km/h (1 Bft) SO 8,9 C 12,1 C
06.06.2012 23:00 12,2 C 82 % 1008,5 hPa 0,0 l/m 1,8 km/h (1 Bft) O-SO 9,2 C 12,2 C
07.06.2012 00:00 12,4 C 82 % 1008,7 hPa 0,0 l/m 0,4 km/h (0 Bft) S-SO 9,4 C 12,4 C
07.06.2012 01:00 12,7 C 83 % 1008,7 hPa 0,0 l/m 1,4 km/h (1 Bft) W-SW 9,8 C 12,7 C
07.06.2012 02:00 12,9 C 83 % 1008,7 hPa 0,0 l/m 2,2 km/h (1 Bft) W-SW 10,0 C 12,9 C
07.06.2012 03:00 12,2 C 84 % 1008,7 hPa 0,0 l/m 2,0 km/h (1 Bft) S-SW 9,5 C 12,2 C
07.06.2012 04:00 11,4 C 85 % 1008,7 hPa 0,0 l/m 1,2 km/h (1 Bft) S-SO 8,9 C 11,4 C
07.06.2012 05:00 10,8 C 86 % 1008,9 hPa 0,0 l/m 1,3 km/h (1 Bft) S-SO 8,5 C 10,8 C
07.06.2012 06:00 11,1 C 87 % 1008,9 hPa 0,0 l/m 4,7 km/h (1 Bft) S-SO 9,0 C 11,1 C
07.06.2012 07:00 12,8 C 86 % 1008,9 hPa 0,0 l/m 3,5 km/h (1 Bft) S-SO 10,6 C 12,8 C
07.06.2012 08:00 14,5 C 84 % 1009,0 hPa 0,0 l/m 3,5 km/h (1 Bft) S-SO 11,8 C 14,5 C
07.06.2012 09:00 15,8 C 81 % 1008,7 hPa 0,0 l/m 4,9 km/h (1 Bft) S-SO 12,5 C 15,8 C
07.06.2012 10:00 17,3 C 75 % 1008,4 hPa 0,0 l/m 4,7 km/h (1 Bft) S 12,8 C 17,3 C
07.06.2012 11:00 17,8 C 73 % 1008,4 hPa 0,0 l/m 6,1 km/h (2 Bft) S-SO 12,8 C 17,8 C
07.06.2012 12:00 18,7 C 71 % 1008,1 hPa 0,0 l/m 7,2 km/h (2 Bft) S-SO 13,4 C 18,7 C
07.06.2012 13:00 20,5 C 67 % 1007,5 hPa 0,0 l/m 8,2 km/h (2 Bft) S-SW 14,1 C 20,5 C
07.06.2012 14:00 20,3 C 66 % 1007,0 hPa 0,5 l/m 4,6 km/h (1 Bft) S 13,7 C 20,3 C
07.06.2012 15:00 18,9 C 73 % 1006,7 hPa 0,0 l/m 2,3 km/h (1 Bft) S-SO 13,9 C 18,9 C
07.06.2012 16:00 18,4 C 75 % 1006,3 hPa 0,0 l/m 2,9 km/h (1 Bft) S 13,8 C 18,4 C
07.06.2012 17:00 17,5 C 79 % 1005,8 hPa 0,0 l/m 2,1 km/h (1 Bft) O 13,8 C 17,5 C
07.06.2012 18:00 17,4 C 81 % 1005,5 hPa 0,0 l/m 3,5 km/h (1 Bft) O 14,1 C 17,4 C
07.06.2012 19:00 17,9 C 80 % 1005,2 hPa 0,0 l/m 3,7 km/h (1 Bft) O 14,4 C 17,9 C
07.06.2012 20:00 17,8 C 80 % 1005,0 hPa 0,0 l/m 4,3 km/h (1 Bft) O 14,3 C 17,8 C
07.06.2012 21:00 16,9 C 83 % 1004,7 hPa 0,0 l/m 5,7 km/h (1 Bft) O-SO 14,0 C 16,9 C
07.06.2012 22:00 15,8 C 86 % 1004,6 hPa 0,0 l/m 5,4 km/h (1 Bft) O-SO 13,4 C 15,8 C
07.06.2012 23:00 15,5 C 86 % 1004,5 hPa 0,0 l/m 5,4 km/h (1 Bft) O 13,2 C 15,5 C
08.06.2012 00:00 15,5 C 86 % 1004,0 hPa 0,0 l/m 3,3 km/h (1 Bft) O-SO 13,2 C 15,5 C
08.06.2012 01:00 15,5 C 88 % 1004,0 hPa 1,0 l/m 4,3 km/h (1 Bft) O-SO 13,4 C 15,5 C
08.06.2012 02:00 15,5 C 89 % 1003,3 hPa 0,0 l/m 5,8 km/h (2 Bft) O 13,7 C 15,5 C
08.06.2012 03:00 15,4 C 88 % 1003,0 hPa 0,0 l/m 3,4 km/h (1 Bft) SO 13,4 C 15,4 C
08.06.2012 04:00 15,0 C 88 % 1003,2 hPa 0,0 l/m 2,4 km/h (1 Bft) SO 13,0 C 15,0 C
08.06.2012 05:00 14,8 C 89 % 1003,4 hPa 0,0 l/m 2,4 km/h (1 Bft) SO 13,0 C 14,8 C
08.06.2012 06:00 16,6 C 86 % 1003,5 hPa 0,0 l/m 5,0 km/h (1 Bft) S-SW 14,2 C 16,6 C
08.06.2012 07:00 18,0 C 81 % 1004,0 hPa 0,0 l/m 11,4 km/h (2 Bft) SW 14,6 C 18,0 C
08.06.2012 08:00 19,5 C 76 % 1004,5 hPa 0,0 l/m 14,2 km/h (3 Bft) W-SW 15,2 C 19,5 C
08.06.2012 09:00 20,7 C 70 % 1005,1 hPa 0,0 l/m 16,1 km/h (3 Bft) W-SW 15,0 C 20,7 C
08.06.2012 10:00 21,7 C 62 % 1005,7 hPa 0,0 l/m 10,7 km/h (2 Bft) W-SW 14,1 C 21,7 C
08.06.2012 11:00 22,1 C 56 % 1005,8 hPa 0,0 l/m 10,4 km/h (2 Bft) W-SW 12,9 C 22,1 C
08.06.2012 12:00 23,0 C 53 % 1006,3 hPa 0,0 l/m 13,1 km/h (3 Bft) W-SW 12,9 C 23,0 C
08.06.2012 13:00 23,8 C 49 % 1006,4 hPa 0,0 l/m 14,0 km/h (3 Bft) W-SW 12,5 C 23,8 C
08.06.2012 14:00 22,1 C 54 % 1006,5 hPa 0,0 l/m 10,0 km/h (2 Bft) W-SW 12,3 C 22,1 C
08.06.2012 15:00 23,6 C 52 % 1006,4 hPa 0,0 l/m 12,4 km/h (3 Bft) W-SW 13,0 C 23,6 C
08.06.2012 16:00 24,0 C 49 % 1006,4 hPa 0,0 l/m 12,1 km/h (2 Bft) W-SW 12,7 C 24,0 C
08.06.2012 17:00 24,2 C 48 % 1006,6 hPa 0,0 l/m 11,4 km/h (2 Bft) W 12,4 C 24,2 C
08.06.2012 18:00 24,6 C 43 % 1007,0 hPa 0,0 l/m 12,1 km/h (2 Bft) W-SW 11,3 C 24,6 C
08.06.2012 19:00 24,1 C 43 % 1007,2 hPa 0,0 l/m 6,2 km/h (2 Bft) W-SW 10,9 C 24,1 C
08.06.2012 20:00 22,6 C 47 % 1007,8 hPa 0,0 l/m 2,3 km/h (1 Bft) W-SW 10,7 C 22,6 C
08.06.2012 21:00 19,9 C 55 % 1008,7 hPa 0,0 l/m 2,5 km/h (1 Bft) NW 10,5 C 19,9 C
08.06.2012 22:00 17,6 C 62 % 1009,8 hPa 0,0 l/m 4,9 km/h (1 Bft) W-NW 10,3 C 17,6 C
08.06.2012 23:00 16,6 C 68 % 1009,8 hPa 0,0 l/m 1,2 km/h (1 Bft) S-SO 10,7 C 16,6 C
09.06.2012 00:00 15,6 C 71 % 1010,0 hPa 0,0 l/m 2,5 km/h (1 Bft) SO 10,4 C 15,6 C
09.06.2012 01:00 14,9 C 73 % 1010,3 hPa 0,0 l/m 3,5 km/h (1 Bft) S-SO 10,2 C 14,9 C
09.06.2012 02:00 14,2 C 76 % 1010,5 hPa 0,0 l/m 5,3 km/h (1 Bft) S-SW 10,0 C 14,2 C
09.06.2012 03:00 14,2 C 77 % 1010,8 hPa 0,0 l/m 3,4 km/h (1 Bft) S-SW 10,1 C 14,2 C
09.06.2012 04:00 14,2 C 76 % 1010,9 hPa 0,0 l/m 2,0 km/h (1 Bft) S-SO 10,0 C 14,2 C
09.06.2012 05:00 14,0 C 77 % 1011,3 hPa 0,0 l/m 2,5 km/h (1 Bft) S-SO 9,9 C 14,0 C
09.06.2012 06:00 15,5 C 72 % 1011,8 hPa 0,0 l/m 6,3 km/h (2 Bft) W-SW 10,4 C 15,5 C
09.06.2012 07:00 16,4 C 69 % 1011,9 hPa 0,0 l/m 7,7 km/h (2 Bft) W 10,8 C 16,4 C
09.06.2012 08:00 18,0 C 62 % 1012,0 hPa 0,0 l/m 12,6 km/h (3 Bft) W-SW 10,5 C 18,0 C
09.06.2012 09:00 18,9 C 53 % 1012,1 hPa 0,0 l/m 14,6 km/h (3 Bft) SW 9,0 C 18,9 C
09.06.2012 10:00 19,7 C 48 % 1012,2 hPa 0,0 l/m 17,9 km/h (3 Bft) SW 8,3 C 19,7 C
09.06.2012 11:00 20,0 C 45 % 1012,2 hPa 0,0 l/m 16,9 km/h (3 Bft) W-SW 7,7 C 20,0 C
09.06.2012 12:00 20,5 C 42 % 1012,0 hPa 0,0 l/m 20,9 km/h (4 Bft) W-SW 7,2 C 20,5 C
09.06.2012 13:00 21,5 C 40 % 1011,9 hPa 0,0 l/m 19,4 km/h (3 Bft) W 7,2 C 21,5 C
09.06.2012 14:00 21,6 C 38 % 1012,0 hPa 0,0 l/m 16,9 km/h (3 Bft) W-SW 6,8 C 21,6 C
09.06.2012 15:00 21,5 C 38 % 1012,0 hPa 0,0 l/m 14,4 km/h (3 Bft) W-SW 6,7 C 21,5 C
09.06.2012 16:00 21,7 C 37 % 1012,1 hPa 0,0 l/m 15,1 km/h (3 Bft) W-SW 6,5 C 21,7 C
09.06.2012 17:00 22,2 C 35 % 1012,2 hPa 0,0 l/m 13,5 km/h (3 Bft) W-SW 6,1 C 22,2 C
09.06.2012 18:00 21,8 C 34 % 1012,3 hPa 0,0 l/m 15,2 km/h (3 Bft) W 5,4 C 21,8 C
09.06.2012 19:00 21,2 C 35 % 1012,6 hPa 0,0 l/m 12,2 km/h (3 Bft) W-SW 5,0 C 21,2 C
09.06.2012 20:00 19,8 C 38 % 1012,9 hPa 0,0 l/m 6,2 km/h (2 Bft) W 4,9 C 19,8 C
09.06.2012 21:00 18,3 C 43 % 1013,3 hPa 0,0 l/m 1,5 km/h (1 Bft) W-NW 5,7 C 18,3 C
09.06.2012 22:00 17,3 C 48 % 1013,5 hPa 0,0 l/m 1,6 km/h (1 Bft) SW 6,1 C 17,3 C
09.06.2012 23:00 16,0 C 49 % 1013,4 hPa 0,0 l/m 3,2 km/h (1 Bft) W 5,3 C 16,0 C
10.06.2012 00:00 15,9 C 50 % 1013,4 hPa 0,0 l/m 4,7 km/h (1 Bft) W-SW 5,5 C 15,9 C
10.06.2012 01:00 15,6 C 52 % 1013,3 hPa 0,0 l/m 2,7 km/h (1 Bft) SO 5,8 C 15,6 C
10.06.2012 02:00 14,9 C 56 % 1013,0 hPa 0,0 l/m 3,0 km/h (1 Bft) S-SO 6,2 C 14,9 C
10.06.2012 03:00 14,6 C 59 % 1013,1 hPa 0,0 l/m 4,2 km/h (1 Bft) S-SO 6,7 C 14,6 C
10.06.2012 04:00 13,5 C 62 % 1013,0 hPa 0,0 l/m 3,1 km/h (1 Bft) S-SO 6,3 C 13,5 C
10.06.2012 05:00 12,8 C 66 % 1013,2 hPa 0,0 l/m 3,9 km/h (1 Bft) S-SO 6,5 C 12,8 C
10.06.2012 06:00 13,9 C 65 % 1013,1 hPa 0,0 l/m 3,2 km/h (1 Bft) S-SO 7,4 C 13,9 C
10.06.2012 07:00 16,4 C 59 % 1013,0 hPa 0,0 l/m 5,9 km/h (2 Bft) W 8,4 C 16,4 C
10.06.2012 08:00 17,7 C 55 % 1013,1 hPa 0,0 l/m 8,0 km/h (2 Bft) W-SW 8,4 C 17,7 C
10.06.2012 09:00 18,9 C 50 % 1013,0 hPa 0,0 l/m 10,1 km/h (2 Bft) S 8,1 C 18,9 C
10.06.2012 10:00 19,2 C 46 % 1012,6 hPa 0,0 l/m 10,2 km/h (2 Bft) W-SW 7,3 C 19,2 C
10.06.2012 11:00 20,4 C 44 % 1012,2 hPa 0,0 l/m 9,6 km/h (2 Bft) W-SW 7,8 C 20,4 C
10.06.2012 12:00 21,1 C 42 % 1011,9 hPa 0,0 l/m 9,0 km/h (2 Bft) W-SW 7,8 C 21,1 C
10.06.2012 13:00 21,7 C 41 % 1011,3 hPa 0,0 l/m 9,7 km/h (2 Bft) W-SW 8,0 C 21,7 C
10.06.2012 14:00 21,7 C 41 % 1011,0 hPa 0,0 l/m 8,2 km/h (2 Bft) W-NW 8,0 C 21,7 C
10.06.2012 15:00 22,5 C 40 % 1010,5 hPa 0,0 l/m 6,6 km/h (2 Bft) NW 8,2 C 22,5 C
10.06.2012 16:00 22,4 C 41 % 1010,1 hPa 0,0 l/m 5,8 km/h (2 Bft) W-NW 8,3 C 22,4 C
10.06.2012 17:00 22,7 C 39 % 1009,5 hPa 0,0 l/m 7,6 km/h (2 Bft) W-NW 7,9 C 22,7 C
10.06.2012 18:00 23,0 C 37 % 1009,2 hPa 0,0 l/m 6,8 km/h (2 Bft) W 7,7 C 23,0 C
10.06.2012 19:00 22,4 C 39 % 1009,0 hPa 0,0 l/m 1,7 km/h (1 Bft) W 7,8 C 22,4 C
10.06.2012 20:00 20,3 C 44 % 1008,8 hPa 0,0 l/m 0,1 km/h (0 Bft) NW 7,6 C 20,3 C
10.06.2012 21:00 19,1 C 49 % 1008,7 hPa 0,0 l/m 0,1 km/h (0 Bft) NW 8,0 C 19,1 C
10.06.2012 22:00 17,5 C 54 % 1008,6 hPa 0,0 l/m 0,1 km/h (0 Bft) SW 8,2 C 17,5 C
10.06.2012 23:00 16,4 C 60 % 1008,6 hPa 0,0 l/m 0,5 km/h (0 Bft) NO 8,5 C 16,4 C
Min-Datum _ 06.06.12 09.06.12 08.06.12 - 04.06.12 - 06.06.12 06.06.12
_ Min-Zeit 05:26 17:46 03:06 - 01:46 - 05:26 05:26
Minimum _ 6,9 C 34 % 1002,9 hPa - 0,0 km/h (0 Bft) - 3,9 C 6,9 C
Max-Datum _ 08.06.12 08.06.12 05.06.12 04.06.12 09.06.12 - 08.06.12 08.06.12
_ Max-Zeit 18:11 05:46 15:21 23:06 14:11 - 09:06 18:11
Maximum _ 24,8 C 90 % 1017,9 hPa 1,6 l/m 30,2 km/h
W-SW (5 Bft)
- 15,6 C 24,8 C
Durchschnitt _ 15,7 C 65 % 1010,6 hPa #7,8 l/m 6,3 km/h (2 Bft) W 8,6 C 15,7 C
(c) by David Heller